createdAt,value
2018-11-02T00:01:31.863Z,1.80
2018-11-02T00:04:01.211Z,1.80
2018-11-02T00:06:30.215Z,1.90
2018-11-02T00:08:58.541Z,1.90
2018-11-02T00:11:27.245Z,1.90
2018-11-02T00:13:55.905Z,1.80
2018-11-02T00:16:24.569Z,1.80
2018-11-02T00:18:53.072Z,1.80
2018-11-02T00:21:21.573Z,1.80
2018-11-02T00:23:50.369Z,1.80
2018-11-02T00:26:18.917Z,1.70
2018-11-02T00:28:47.692Z,1.70
2018-11-02T00:31:16.201Z,1.70
2018-11-02T00:33:44.917Z,1.60
2018-11-02T00:36:13.482Z,1.70
2018-11-02T00:38:42.387Z,1.70
2018-11-02T00:41:11.109Z,1.70
2018-11-02T00:43:39.814Z,1.70
2018-11-02T00:46:09.232Z,1.70
2018-11-02T00:48:37.933Z,1.70
2018-11-02T00:51:06.532Z,1.60
2018-11-02T00:53:35.125Z,1.70
2018-11-02T00:56:03.639Z,1.60
2018-11-02T00:58:32.272Z,1.70
2018-11-02T01:01:00.890Z,1.80
2018-11-02T01:03:29.812Z,1.80
2018-11-02T01:05:58.369Z,1.80
2018-11-02T01:08:27.038Z,1.90
2018-11-02T01:10:56.389Z,1.80
2018-11-02T01:13:24.905Z,1.70
2018-11-02T01:15:53.546Z,1.80
2018-11-02T01:18:22.129Z,1.90
2018-11-02T01:20:50.708Z,1.80
2018-11-02T01:23:19.265Z,1.70
2018-11-02T01:25:47.831Z,1.70
2018-11-02T01:28:16.511Z,1.60
2018-11-02T01:30:45.245Z,1.50
2018-11-02T01:33:13.836Z,1.50
2018-11-02T01:35:42.787Z,1.40
2018-11-02T01:38:11.693Z,1.40
2018-11-02T01:40:40.272Z,1.30
2018-11-02T01:43:08.847Z,1.30
2018-11-02T01:45:37.336Z,1.20
2018-11-02T01:48:05.964Z,1.10
2018-11-02T01:50:35.372Z,1.10
2018-11-02T01:53:03.888Z,1.10
2018-11-02T01:55:32.374Z,1.00
2018-11-02T01:58:00.955Z,1.00
2018-11-02T02:00:29.529Z,0.90
2018-11-02T02:02:58.050Z,0.90
2018-11-02T02:05:26.556Z,0.80
2018-11-02T02:07:55.308Z,0.80
2018-11-02T02:10:23.876Z,0.80
2018-11-02T02:12:52.368Z,0.70
2018-11-02T02:15:20.868Z,0.70
2018-11-02T02:17:49.951Z,0.70
2018-11-02T02:20:18.474Z,0.70
2018-11-02T02:22:47.209Z,0.70
2018-11-02T02:25:15.828Z,0.70
2018-11-02T02:27:44.934Z,0.70
2018-11-02T02:30:14.612Z,0.70
2018-11-02T02:32:43.123Z,0.70
2018-11-02T02:35:11.853Z,0.70
2018-11-02T02:37:41.084Z,0.70
2018-11-02T02:40:11.543Z,0.60
2018-11-02T02:42:40.672Z,0.60
2018-11-02T02:45:10.209Z,0.60
2018-11-02T02:47:39.603Z,0.60
2018-11-02T02:50:11.664Z,0.60
2018-11-02T02:52:40.323Z,0.70
2018-11-02T02:55:09.132Z,0.70
2018-11-02T02:57:38.396Z,0.70
2018-11-02T03:00:09.475Z,0.60
2018-11-02T03:02:38.713Z,0.60
2018-11-02T03:05:07.251Z,0.50
2018-11-02T03:07:35.811Z,0.40
2018-11-02T03:10:04.928Z,0.40
2018-11-02T03:12:33.555Z,0.50
2018-11-02T03:15:02.909Z,0.60
2018-11-02T03:17:31.441Z,0.70
2018-11-02T03:20:00.006Z,0.70
2018-11-02T03:22:28.768Z,0.70
2018-11-02T03:24:57.188Z,0.70
2018-11-02T03:27:32.580Z,0.70
2018-11-02T03:30:01.085Z,0.70
2018-11-02T03:32:30.407Z,0.80
2018-11-02T03:34:59.823Z,0.80
2018-11-02T03:37:29.095Z,0.90
2018-11-02T03:39:57.783Z,0.90
2018-11-02T03:42:26.248Z,0.90
2018-11-02T03:44:54.895Z,1.00
2018-11-02T03:47:23.476Z,1.00
2018-11-02T03:49:51.987Z,1.10
2018-11-02T03:52:20.691Z,1.10
2018-11-02T03:54:49.347Z,1.10
2018-11-02T03:57:17.932Z,1.10
2018-11-02T03:59:46.384Z,1.20
2018-11-02T04:02:15.122Z,1.20
2018-11-02T04:04:43.683Z,1.30
2018-11-02T04:07:12.347Z,1.50
2018-11-02T04:09:40.946Z,1.70
2018-11-02T04:12:09.495Z,1.70
2018-11-02T04:14:38.078Z,1.70
2018-11-02T04:17:07.284Z,1.70
2018-11-02T04:19:35.805Z,1.70
2018-11-02T04:22:04.400Z,1.70
2018-11-02T04:24:33.046Z,1.60
2018-11-02T04:27:01.699Z,1.60
2018-11-02T04:29:30.476Z,1.70
2018-11-02T04:31:58.975Z,2.00
2018-11-02T04:34:27.604Z,2.10
2018-11-02T04:36:56.532Z,2.20
2018-11-02T04:39:25.037Z,2.30
2018-11-02T04:41:54.191Z,2.20
2018-11-02T04:44:23.269Z,2.20
2018-11-02T04:46:52.424Z,2.10
2018-11-02T04:49:21.663Z,2.10
2018-11-02T04:51:50.151Z,2.00
2018-11-02T04:54:18.777Z,2.00
2018-11-02T04:56:47.319Z,1.90
2018-11-02T04:59:15.927Z,1.80
2018-11-02T05:01:44.444Z,1.70
2018-11-02T05:04:13.287Z,1.70
2018-11-02T05:06:42.378Z,1.70
2018-11-02T05:09:10.849Z,1.60
2018-11-02T05:11:39.435Z,1.50
2018-11-02T05:14:08.041Z,1.50
2018-11-02T05:16:36.698Z,1.50
2018-11-02T05:19:05.727Z,1.50
2018-11-02T05:21:34.348Z,1.50
2018-11-02T05:24:03.091Z,1.50
2018-11-02T05:26:31.732Z,1.50
2018-11-02T05:29:00.346Z,1.60
2018-11-02T05:31:29.010Z,1.60
2018-11-02T05:33:57.811Z,1.60
2018-11-02T05:36:26.331Z,1.60
2018-11-02T05:38:54.828Z,1.60
2018-11-02T05:41:23.335Z,1.60
2018-11-02T05:43:51.851Z,1.70
2018-11-02T05:46:20.382Z,1.70
2018-11-02T05:48:48.965Z,1.70
2018-11-02T05:51:17.485Z,1.70
2018-11-02T05:53:46.000Z,1.70
2018-11-02T05:56:14.531Z,1.70
2018-11-02T05:58:43.076Z,1.80
2018-11-02T06:01:11.859Z,1.80
2018-11-02T06:03:40.423Z,1.90
2018-11-02T06:06:09.574Z,1.80
2018-11-02T06:08:38.757Z,1.90
2018-11-02T06:11:07.576Z,1.90
2018-11-02T06:13:36.733Z,1.90
2018-11-02T06:16:05.669Z,1.90
2018-11-02T06:18:34.303Z,1.90
2018-11-02T06:21:02.925Z,2.40
2018-11-02T06:23:31.559Z,2.50
2018-11-02T06:26:00.076Z,2.60
2018-11-02T06:28:28.661Z,2.30
2018-11-02T06:30:57.241Z,2.30
2018-11-02T06:33:25.875Z,2.20
2018-11-02T06:35:54.551Z,2.20
2018-11-02T06:38:23.083Z,2.10
2018-11-02T06:40:51.738Z,2.50
2018-11-02T06:43:20.409Z,3.40
2018-11-02T06:45:49.897Z,3.10
2018-11-02T06:48:18.576Z,2.90
2018-11-02T06:50:47.524Z,3.00
2018-11-02T06:53:16.044Z,3.30
2018-11-02T06:55:45.692Z,3.40
2018-11-02T06:58:14.773Z,3.20
2018-11-02T07:00:43.541Z,3.00
2018-11-02T07:03:12.047Z,3.00
2018-11-02T07:05:40.617Z,3.50
2018-11-02T07:08:09.694Z,3.60
2018-11-02T07:10:38.844Z,3.70
2018-11-02T07:13:08.197Z,3.60
2018-11-02T07:15:36.848Z,3.80
2018-11-02T07:18:05.685Z,3.80
2018-11-02T07:20:34.162Z,3.80
2018-11-02T07:23:02.777Z,4.10
2018-11-02T07:25:31.442Z,4.00
2018-11-02T07:28:00.060Z,4.00
2018-11-02T07:30:28.678Z,3.80
2018-11-02T07:32:57.419Z,3.70
2018-11-02T07:35:27.129Z,3.60
2018-11-02T07:37:55.934Z,3.70
2018-11-02T07:40:26.333Z,3.80
2018-11-02T07:42:55.398Z,3.90
2018-11-02T07:45:24.060Z,3.90
2018-11-02T07:47:53.006Z,3.90
2018-11-02T07:50:21.582Z,3.80
2018-11-02T07:52:50.942Z,3.80
2018-11-02T07:55:19.699Z,3.80
2018-11-02T07:57:48.431Z,3.90
2018-11-02T08:00:18.841Z,4.00
2018-11-02T08:02:47.841Z,4.00
2018-11-02T08:05:19.113Z,4.10
2018-11-02T08:07:47.901Z,4.20
2018-11-02T08:10:16.581Z,4.20
2018-11-02T08:12:45.272Z,4.20
2018-11-02T08:15:14.153Z,4.20
2018-11-02T08:17:42.857Z,4.10
2018-11-02T08:20:13.702Z,4.10
2018-11-02T08:22:43.006Z,4.20
2018-11-02T08:25:12.930Z,4.30
2018-11-02T08:27:42.100Z,4.40
2018-11-02T08:30:11.770Z,4.50
2018-11-02T08:32:40.823Z,4.70
2018-11-02T08:35:11.534Z,4.80
2018-11-02T08:37:40.355Z,4.80
2018-11-02T08:40:10.676Z,5.00
2018-11-02T08:42:39.166Z,5.00
2018-11-02T08:45:08.669Z,5.10
2018-11-02T08:47:37.296Z,5.30
2018-11-02T08:50:07.314Z,5.50
2018-11-02T08:52:36.237Z,5.50
2018-11-02T08:55:05.000Z,5.60
2018-11-02T08:57:33.576Z,5.60
2018-11-02T09:00:02.208Z,5.70
2018-11-02T09:02:31.105Z,5.80
2018-11-02T09:04:59.703Z,5.90
2018-11-02T09:07:28.244Z,5.80
2018-11-02T09:09:57.182Z,5.90
2018-11-02T09:12:26.218Z,6.00
2018-11-02T09:14:54.849Z,6.00
2018-11-02T09:17:23.584Z,6.00
2018-11-02T09:19:52.737Z,6.00
2018-11-02T09:22:22.125Z,6.00
2018-11-02T09:24:50.727Z,6.10
2018-11-02T09:27:19.391Z,6.20
2018-11-02T09:29:47.992Z,6.40
2018-11-02T09:32:16.950Z,6.50
2018-11-02T09:34:45.467Z,6.70
2018-11-02T09:37:14.419Z,6.80
2018-11-02T09:39:43.262Z,6.90
2018-11-02T09:42:11.826Z,7.00
2018-11-02T09:44:40.483Z,7.20
2018-11-02T09:47:09.338Z,7.20
2018-11-02T09:49:37.938Z,7.30
2018-11-02T09:52:06.704Z,7.30
2018-11-02T09:54:35.270Z,7.20
2018-11-02T09:57:04.229Z,7.20
2018-11-02T09:59:32.946Z,7.20
2018-11-02T10:02:01.693Z,7.20
2018-11-02T10:04:30.401Z,7.20
2018-11-02T10:06:59.333Z,7.20
2018-11-02T10:09:28.294Z,7.40
2018-11-02T10:11:57.285Z,7.40
2018-11-02T10:14:25.933Z,7.50
2018-11-02T10:16:54.514Z,7.50
2018-11-02T10:19:23.213Z,7.60
2018-11-02T10:21:51.828Z,7.70
2018-11-02T10:24:20.500Z,7.90
2018-11-02T10:26:49.138Z,8.00
2018-11-02T10:29:17.993Z,8.10
2018-11-02T10:31:46.721Z,8.20
2018-11-02T10:34:15.687Z,8.20
2018-11-02T10:36:44.308Z,8.30
2018-11-02T10:39:14.218Z,8.40
2018-11-02T10:41:45.514Z,8.50
2018-11-02T10:44:15.860Z,8.60
2018-11-02T10:46:46.380Z,8.70
2018-11-02T10:49:15.064Z,8.70
2018-11-02T10:51:43.784Z,8.80
2018-11-02T10:54:13.071Z,8.80
2018-11-02T10:56:41.693Z,8.90
2018-11-02T10:59:10.196Z,9.10
2018-11-02T11:01:44.038Z,9.30
2018-11-02T11:04:12.620Z,9.40
2018-11-02T11:06:41.272Z,9.60
2018-11-02T11:09:11.684Z,9.70
2018-11-02T11:11:41.061Z,9.80
2018-11-02T11:14:10.152Z,9.90
2018-11-02T11:16:38.963Z,9.90
2018-11-02T11:19:08.580Z,10.00
2018-11-02T11:21:38.103Z,10.10
2018-11-02T11:24:07.101Z,10.20
2018-11-02T11:26:36.256Z,10.30
2018-11-02T11:29:05.500Z,10.40
2018-11-02T11:31:34.757Z,10.50
2018-11-02T11:34:03.443Z,10.60
2018-11-02T11:36:32.085Z,10.60
2018-11-02T11:39:00.661Z,10.60
2018-11-02T11:41:29.724Z,10.70
2018-11-02T11:43:59.139Z,10.80
2018-11-02T11:46:27.822Z,10.90
2018-11-02T11:48:56.705Z,11.10
2018-11-02T11:51:25.111Z,11.20
2018-11-02T11:53:53.805Z,11.30
2018-11-02T11:56:22.343Z,11.40
2018-11-02T11:58:51.198Z,11.50
2018-11-02T12:01:20.201Z,11.70
2018-11-02T12:03:48.930Z,11.70
2018-11-02T12:06:17.671Z,11.80
2018-11-02T12:08:47.185Z,11.90
2018-11-02T12:11:15.721Z,11.90
2018-11-02T12:13:44.337Z,11.90
2018-11-02T12:16:12.936Z,12.00
2018-11-02T12:18:42.128Z,12.00
2018-11-02T12:21:10.670Z,12.00
2018-11-02T12:23:39.653Z,12.00
2018-11-02T12:26:08.804Z,12.00
2018-11-02T12:28:37.360Z,12.00
2018-11-02T12:31:06.361Z,12.00
2018-11-02T12:33:34.970Z,12.00
2018-11-02T12:36:03.684Z,12.00
2018-11-02T12:38:32.251Z,12.00
2018-11-02T12:41:00.810Z,12.10
2018-11-02T12:43:29.528Z,12.10
2018-11-02T12:45:58.696Z,12.00
2018-11-02T12:48:27.437Z,11.90
2018-11-02T12:50:56.139Z,12.00
2018-11-02T12:53:24.894Z,11.90
2018-11-02T12:55:53.613Z,12.00
2018-11-02T12:58:22.485Z,12.00
2018-11-02T13:00:51.120Z,11.90
2018-11-02T13:03:19.849Z,11.80
2018-11-02T13:05:49.115Z,11.80
2018-11-02T13:08:17.960Z,11.80
2018-11-02T13:10:46.660Z,11.70
2018-11-02T13:13:15.334Z,11.80
2018-11-02T13:15:44.515Z,11.80
2018-11-02T13:18:13.171Z,11.80
2018-11-02T13:20:41.869Z,11.80
2018-11-02T13:23:10.427Z,11.80
2018-11-02T13:25:39.209Z,11.80
2018-11-02T13:28:07.745Z,11.80
2018-11-02T13:30:36.299Z,11.70
2018-11-02T13:33:05.078Z,11.70
2018-11-02T13:35:33.657Z,11.70
2018-11-02T13:38:02.609Z,11.70
2018-11-02T13:40:31.160Z,11.70
2018-11-02T13:42:59.824Z,11.70
2018-11-02T13:45:28.450Z,11.60
2018-11-02T13:47:57.072Z,11.70
2018-11-02T13:50:25.689Z,11.70
2018-11-02T13:52:54.309Z,11.70
2018-11-02T13:55:22.964Z,11.60
2018-11-02T13:57:51.596Z,11.50
2018-11-02T14:00:20.646Z,11.40
2018-11-02T14:02:50.044Z,11.30
2018-11-02T14:05:19.131Z,11.30
2018-11-02T14:07:47.885Z,11.30
2018-11-02T14:10:17.168Z,11.30
2018-11-02T14:12:45.713Z,11.30
2018-11-02T14:15:15.779Z,11.30
2018-11-02T14:17:44.478Z,11.20
2018-11-02T14:20:13.796Z,11.20
2018-11-02T14:22:42.332Z,11.10
2018-11-02T14:25:16.123Z,11.10
2018-11-02T14:27:45.084Z,11.10
2018-11-02T14:30:15.423Z,11.20
2018-11-02T14:32:44.187Z,11.20
2018-11-02T14:35:12.845Z,11.20
2018-11-02T14:37:41.399Z,11.20
2018-11-02T14:40:11.349Z,11.20
2018-11-02T14:42:40.696Z,11.20
2018-11-02T14:45:11.252Z,11.10
2018-11-02T14:47:39.834Z,11.00
2018-11-02T14:50:09.385Z,11.00
2018-11-02T14:52:38.318Z,10.90
2018-11-02T14:55:07.145Z,10.90
2018-11-02T14:57:35.714Z,10.80
2018-11-02T15:00:05.048Z,10.70
2018-11-02T15:02:33.808Z,10.60
2018-11-02T15:05:02.667Z,10.60
2018-11-02T15:07:31.261Z,10.50
2018-11-02T15:09:59.995Z,10.40
2018-11-02T15:12:28.851Z,10.40
2018-11-02T15:14:57.432Z,10.30
2018-11-02T15:17:26.325Z,10.20
2018-11-02T15:19:56.076Z,10.20
2018-11-02T15:22:24.698Z,10.10
2018-11-02T15:24:53.422Z,10.10
2018-11-02T15:27:22.165Z,10.10
2018-11-02T15:29:50.948Z,10.00
2018-11-02T15:32:19.777Z,10.00
2018-11-02T15:34:49.039Z,9.90
2018-11-02T15:37:17.759Z,9.90
2018-11-02T15:39:46.773Z,9.80
2018-11-02T15:42:15.688Z,9.80
2018-11-02T15:44:45.247Z,9.70
2018-11-02T15:47:13.953Z,9.70
2018-11-02T15:49:42.725Z,9.70
2018-11-02T15:52:11.453Z,9.60
2018-11-02T15:54:40.030Z,9.50
2018-11-02T15:57:08.885Z,9.50
2018-11-02T15:59:37.667Z,9.40
2018-11-02T16:02:06.855Z,9.40
2018-11-02T16:04:35.496Z,9.30
2018-11-02T16:07:04.195Z,9.20
2018-11-02T16:09:32.736Z,9.20
2018-11-02T16:12:01.950Z,9.10
2018-11-02T16:14:30.645Z,9.00
2018-11-02T16:16:59.292Z,9.00
2018-11-02T16:19:28.033Z,8.90
2018-11-02T16:21:56.628Z,8.90
2018-11-02T16:24:26.137Z,8.80
2018-11-02T16:26:54.772Z,8.80
2018-11-02T16:29:23.370Z,8.70
2018-11-02T16:31:51.900Z,8.70
2018-11-02T16:34:20.807Z,8.60
2018-11-02T16:36:49.404Z,8.60
2018-11-02T16:39:18.168Z,8.50
2018-11-02T16:41:46.814Z,8.50
2018-11-02T16:44:15.629Z,8.40
2018-11-02T16:46:44.265Z,8.40
2018-11-02T16:49:12.897Z,8.30
2018-11-02T16:51:41.457Z,8.30
2018-11-02T16:54:10.110Z,8.20
2018-11-02T16:56:39.256Z,8.10
2018-11-02T16:59:07.739Z,8.10
2018-11-02T17:01:36.409Z,8.10
2018-11-02T17:04:05.612Z,8.00
2018-11-02T17:06:34.893Z,8.00
2018-11-02T17:09:05.154Z,8.00
2018-11-02T17:11:33.822Z,8.00
2018-11-02T17:14:02.455Z,8.00
2018-11-02T17:16:31.077Z,8.00
2018-11-02T17:18:59.959Z,8.00
2018-11-02T17:21:28.529Z,8.00
2018-11-02T17:23:57.076Z,8.00
2018-11-02T17:26:25.694Z,7.90
2018-11-02T17:28:54.301Z,7.90
2018-11-02T17:31:22.798Z,7.90
2018-11-02T17:33:51.467Z,7.90
2018-11-02T17:36:20.460Z,7.90
2018-11-02T17:38:49.088Z,7.90
2018-11-02T17:41:17.660Z,7.80
2018-11-02T17:43:46.318Z,7.80
2018-11-02T17:46:14.815Z,7.80
2018-11-02T17:48:43.593Z,7.80
2018-11-02T17:53:49.600Z,7.80
2018-11-02T17:56:18.319Z,7.80
2018-11-02T17:58:47.224Z,7.80
2018-11-02T18:01:16.838Z,7.70
2018-11-02T18:03:45.500Z,7.80
2018-11-02T18:06:14.330Z,7.80
2018-11-02T18:08:43.071Z,7.80
2018-11-02T18:11:11.706Z,7.70
2018-11-02T18:13:40.629Z,7.80
2018-11-02T18:16:09.507Z,7.80
2018-11-02T18:18:38.441Z,7.80
2018-11-02T18:21:07.224Z,7.80
2018-11-02T18:23:35.937Z,7.90
2018-11-02T18:26:05.425Z,7.90
2018-11-02T18:28:34.199Z,7.90
2018-11-02T18:31:02.882Z,7.90
2018-11-02T18:33:31.835Z,7.90
2018-11-02T18:36:00.839Z,7.80
2018-11-02T18:38:29.659Z,7.80
2018-11-02T18:40:58.326Z,7.70
2018-11-02T18:43:27.147Z,7.70
2018-11-02T18:45:56.021Z,7.70
2018-11-02T18:48:25.426Z,7.70
2018-11-02T18:50:54.014Z,7.70
2018-11-02T18:53:22.872Z,7.70
2018-11-02T18:55:51.790Z,7.70
2018-11-02T18:58:20.500Z,7.70
2018-11-02T19:00:49.310Z,7.70
2018-11-02T19:03:18.266Z,7.60
2018-11-02T19:05:47.036Z,7.70
2018-11-02T19:08:15.977Z,7.60
2018-11-02T19:10:44.709Z,7.60
2018-11-02T19:13:13.795Z,7.70
2018-11-02T19:15:42.435Z,7.70
2018-11-02T19:18:11.013Z,7.60
2018-11-02T19:20:40.136Z,7.60
2018-11-02T19:23:09.364Z,7.60
2018-11-02T19:25:38.207Z,7.60
2018-11-02T19:28:07.317Z,7.60
2018-11-02T19:30:36.085Z,7.60
2018-11-02T19:33:05.030Z,7.60
2018-11-02T19:35:33.871Z,7.70
2018-11-02T19:38:02.730Z,7.70
2018-11-02T19:40:32.289Z,7.70
2018-11-02T19:43:01.032Z,7.70
2018-11-02T19:45:29.780Z,7.60
2018-11-02T19:48:01.956Z,7.60
2018-11-02T19:50:30.804Z,7.60
2018-11-02T19:52:59.637Z,7.60
2018-11-02T19:55:28.578Z,7.60
2018-11-02T19:57:57.138Z,7.60
2018-11-02T20:00:25.827Z,7.60
2018-11-02T20:02:55.049Z,7.60
2018-11-02T20:05:23.918Z,7.50
2018-11-02T20:07:52.842Z,7.50
2018-11-02T20:10:32.602Z,7.50
2018-11-02T20:13:04.410Z,7.50
2018-11-02T20:15:33.872Z,7.50
2018-11-02T20:18:02.960Z,7.50
2018-11-02T20:20:32.362Z,7.50
2018-11-02T20:23:01.580Z,7.50
2018-11-02T20:25:30.675Z,7.50
2018-11-02T20:28:00.132Z,7.40
2018-11-02T20:30:29.095Z,7.40
2018-11-02T20:32:58.893Z,7.40
2018-11-02T20:35:27.709Z,7.40
2018-11-02T20:37:56.419Z,7.40
2018-11-02T20:40:25.146Z,7.30
2018-11-02T20:42:54.095Z,7.30
2018-11-02T20:45:23.105Z,7.30
2018-11-02T20:47:53.292Z,7.30
2018-11-02T20:50:22.884Z,7.30
2018-11-02T20:52:52.323Z,7.30
2018-11-02T20:55:21.652Z,7.30
2018-11-02T20:57:50.490Z,7.30
2018-11-02T21:00:23.023Z,7.30
2018-11-02T21:02:52.100Z,7.30
2018-11-02T21:05:21.688Z,7.30
2018-11-02T21:07:50.953Z,7.30
2018-11-02T21:10:20.414Z,7.30
2018-11-02T21:12:49.349Z,7.30
2018-11-02T21:15:21.315Z,7.30
2018-11-02T21:17:50.270Z,7.20
2018-11-02T21:20:20.609Z,7.30
2018-11-02T21:22:49.279Z,7.30
2018-11-02T21:25:18.875Z,7.30
2018-11-02T21:27:48.106Z,7.30
2018-11-02T21:30:23.384Z,7.30
2018-11-02T21:32:53.038Z,7.30
2018-11-02T21:35:22.406Z,7.30
2018-11-02T21:37:51.950Z,7.30
2018-11-02T21:40:22.083Z,7.30
2018-11-02T21:42:51.145Z,7.40
2018-11-02T21:45:22.301Z,7.40
2018-11-02T21:47:50.862Z,7.30
2018-11-02T21:50:20.116Z,7.40
2018-11-02T21:52:49.047Z,7.40
2018-11-02T21:55:18.244Z,7.30
2018-11-02T21:57:46.833Z,7.30
2018-11-02T22:00:16.821Z,7.30
2018-11-02T22:02:46.200Z,7.20
2018-11-02T22:05:15.168Z,7.30
2018-11-02T22:07:44.996Z,7.30
2018-11-02T22:10:15.190Z,7.30
2018-11-02T22:12:44.706Z,7.30
2018-11-02T22:15:14.244Z,7.30
2018-11-02T22:17:42.839Z,7.40
2018-11-02T22:20:13.400Z,7.40
2018-11-02T22:22:42.216Z,7.40
2018-11-02T22:25:11.971Z,7.50
2018-11-02T22:27:40.682Z,7.60
2018-11-02T22:30:12.935Z,7.60
2018-11-02T22:32:41.779Z,7.60
2018-11-02T22:35:11.593Z,7.60
2018-11-02T22:37:40.203Z,7.70
2018-11-02T22:40:10.448Z,7.70
2018-11-02T22:42:39.316Z,7.70
2018-11-02T22:45:08.709Z,7.80
2018-11-02T22:47:37.328Z,7.80
2018-11-02T22:50:06.966Z,7.80
2018-11-02T22:52:35.883Z,7.80
2018-11-02T22:55:04.612Z,7.70
2018-11-02T22:57:33.248Z,7.70
2018-11-02T23:00:02.011Z,7.70
2018-11-02T23:02:30.820Z,7.70
2018-11-02T23:04:59.443Z,7.60
2018-11-02T23:07:28.004Z,7.60
2018-11-02T23:09:56.677Z,7.60
2018-11-02T23:12:25.355Z,7.60
2018-11-02T23:14:54.235Z,7.50
2018-11-02T23:17:22.969Z,7.50
2018-11-02T23:19:51.727Z,7.50
2018-11-02T23:22:21.323Z,7.50
2018-11-02T23:24:50.192Z,7.40
2018-11-02T23:27:19.103Z,7.40
2018-11-02T23:29:47.894Z,7.40
2018-11-02T23:32:16.852Z,7.30
2018-11-02T23:34:45.496Z,7.30
2018-11-02T23:37:14.288Z,7.30
2018-11-02T23:39:43.053Z,7.30
2018-11-02T23:42:11.783Z,7.30
2018-11-02T23:44:40.598Z,7.30
2018-11-02T23:47:09.640Z,7.30
2018-11-02T23:49:38.181Z,7.30
2018-11-02T23:52:06.838Z,7.30
2018-11-02T23:54:36.192Z,7.20
2018-11-02T23:57:05.263Z,7.20
2018-11-02T23:59:33.794Z,7.20
